sensor_id;sensor_type;location;lat;lon;timestamp;P1;durP1;ratioP1;P2;durP2;ratioP2
48849;SDS011;63210;53.370;6.770;2024-01-06T00:14:51;10.52;;;6.82;;
48849;SDS011;63210;53.370;6.770;2024-01-06T00:17:25;9.57;;;7.05;;
48849;SDS011;63210;53.370;6.770;2024-01-06T00:19:50;9.13;;;6.75;;
48849;SDS011;63210;53.370;6.770;2024-01-06T00:22:17;11.18;;;6.82;;
48849;SDS011;63210;53.370;6.770;2024-01-06T00:24:47;7.85;;;5.85;;
48849;SDS011;63210;53.370;6.770;2024-01-06T00:27:15;13.55;;;7.38;;
48849;SDS011;63210;53.370;6.770;2024-01-06T00:29:42;10.35;;;7.07;;
48849;SDS011;63210;53.370;6.770;2024-01-06T00:32:08;10.25;;;6.93;;
48849;SDS011;63210;53.370;6.770;2024-01-06T00:34:33;9.23;;;6.47;;
48849;SDS011;63210;53.370;6.770;2024-01-06T00:37:00;9.70;;;7.13;;
48849;SDS011;63210;53.370;6.770;2024-01-06T00:39:36;9.05;;;6.60;;
48849;SDS011;63210;53.370;6.770;2024-01-06T00:42:07;10.50;;;6.40;;
48849;SDS011;63210;53.370;6.770;2024-01-06T00:44:36;12.48;;;8.43;;
48849;SDS011;63210;53.370;6.770;2024-01-06T00:47:09;12.45;;;7.78;;
48849;SDS011;63210;53.370;6.770;2024-01-06T00:49:34;11.60;;;7.03;;
48849;SDS011;63210;53.370;6.770;2024-01-06T00:52:01;9.52;;;6.63;;
48849;SDS011;63210;53.370;6.770;2024-01-06T00:54:26;9.60;;;6.30;;
48849;SDS011;63210;53.370;6.770;2024-01-06T00:56:51;13.02;;;8.18;;
48849;SDS011;63210;53.370;6.770;2024-01-06T00:59:17;10.80;;;8.20;;
48849;SDS011;63210;53.370;6.770;2024-01-06T01:01:43;8.77;;;6.55;;
48849;SDS011;63210;53.370;6.770;2024-01-06T01:04:08;10.57;;;7.20;;
48849;SDS011;63210;53.370;6.770;2024-01-06T01:06:37;8.90;;;6.65;;
48849;SDS011;63210;53.370;6.770;2024-01-06T01:09:04;11.02;;;8.65;;
48849;SDS011;63210;53.370;6.770;2024-01-06T01:11:29;9.63;;;6.38;;
48849;SDS011;63210;53.370;6.770;2024-01-06T01:14:05;8.35;;;5.72;;
48849;SDS011;63210;53.370;6.770;2024-01-06T01:16:31;6.82;;;5.18;;
48849;SDS011;63210;53.370;6.770;2024-01-06T01:19:16;10.93;;;7.22;;
48849;SDS011;63210;53.370;6.770;2024-01-06T01:21:42;7.32;;;5.43;;
48849;SDS011;63210;53.370;6.770;2024-01-06T01:24:29;7.82;;;5.03;;
48849;SDS011;63210;53.370;6.770;2024-01-06T01:26:54;9.05;;;5.82;;
48849;SDS011;63210;53.370;6.770;2024-01-06T01:29:20;6.75;;;5.45;;
48849;SDS011;63210;53.370;6.770;2024-01-06T01:31:47;9.75;;;6.85;;
48849;SDS011;63210;53.370;6.770;2024-01-06T01:34:13;8.32;;;6.35;;
48849;SDS011;63210;53.370;6.770;2024-01-06T01:36:42;9.85;;;6.28;;
48849;SDS011;63210;53.370;6.770;2024-01-06T01:39:08;10.68;;;7.53;;
48849;SDS011;63210;53.370;6.770;2024-01-06T01:41:33;7.93;;;6.00;;
48849;SDS011;63210;53.370;6.770;2024-01-06T01:44:09;7.32;;;5.57;;
48849;SDS011;63210;53.370;6.770;2024-01-06T01:46:40;7.93;;;6.10;;
48849;SDS011;63210;53.370;6.770;2024-01-06T01:51:41;8.17;;;4.90;;
48849;SDS011;63210;53.370;6.770;2024-01-06T01:54:10;6.45;;;4.22;;
48849;SDS011;63210;53.370;6.770;2024-01-06T01:56:35;8.90;;;5.47;;
48849;SDS011;63210;53.370;6.770;2024-01-06T01:59:17;7.22;;;4.93;;
48849;SDS011;63210;53.370;6.770;2024-01-06T02:01:51;7.05;;;5.28;;
48849;SDS011;63210;53.370;6.770;2024-01-06T02:04:22;7.75;;;5.60;;
48849;SDS011;63210;53.370;6.770;2024-01-06T02:06:51;10.10;;;5.80;;
48849;SDS011;63210;53.370;6.770;2024-01-06T02:09:19;8.07;;;6.65;;
48849;SDS011;63210;53.370;6.770;2024-01-06T02:11:44;7.75;;;5.47;;
48849;SDS011;63210;53.370;6.770;2024-01-06T02:14:10;8.32;;;5.72;;
48849;SDS011;63210;53.370;6.770;2024-01-06T02:16:42;6.55;;;4.18;;
48849;SDS011;63210;53.370;6.770;2024-01-06T02:19:07;9.20;;;5.00;;
48849;SDS011;63210;53.370;6.770;2024-01-06T02:21:36;13.23;;;7.13;;
48849;SDS011;63210;53.370;6.770;2024-01-06T02:24:06;9.38;;;6.43;;
48849;SDS011;63210;53.370;6.770;2024-01-06T02:26:32;12.90;;;7.95;;
48849;SDS011;63210;53.370;6.770;2024-01-06T02:29:03;8.75;;;6.88;;
48849;SDS011;63210;53.370;6.770;2024-01-06T02:31:36;13.90;;;10.30;;
48849;SDS011;63210;53.370;6.770;2024-01-06T02:34:05;14.50;;;8.48;;
48849;SDS011;63210;53.370;6.770;2024-01-06T02:36:32;10.50;;;5.97;;
48849;SDS011;63210;53.370;6.770;2024-01-06T02:39:00;15.02;;;9.20;;
48849;SDS011;63210;53.370;6.770;2024-01-06T02:41:27;9.50;;;7.20;;
48849;SDS011;63210;53.370;6.770;2024-01-06T02:43:54;13.45;;;8.40;;
48849;SDS011;63210;53.370;6.770;2024-01-06T02:46:19;14.75;;;9.48;;
48849;SDS011;63210;53.370;6.770;2024-01-06T02:48:48;10.93;;;8.38;;
48849;SDS011;63210;53.370;6.770;2024-01-06T02:51:22;13.18;;;8.45;;
48849;SDS011;63210;53.370;6.770;2024-01-06T02:54:07;11.95;;;8.10;;
48849;SDS011;63210;53.370;6.770;2024-01-06T02:56:34;10.23;;;6.88;;
48849;SDS011;63210;53.370;6.770;2024-01-06T02:59:03;10.40;;;5.95;;
48849;SDS011;63210;53.370;6.770;2024-01-06T03:03:58;8.87;;;6.53;;
48849;SDS011;63210;53.370;6.770;2024-01-06T03:06:24;12.77;;;7.53;;
48849;SDS011;63210;53.370;6.770;2024-01-06T03:08:56;9.23;;;7.32;;
48849;SDS011;63210;53.370;6.770;2024-01-06T03:11:25;13.13;;;8.50;;
48849;SDS011;63210;53.370;6.770;2024-01-06T03:13:51;13.13;;;8.73;;
48849;SDS011;63210;53.370;6.770;2024-01-06T03:16:16;11.82;;;7.68;;
48849;SDS011;63210;53.370;6.770;2024-01-06T03:18:41;13.55;;;8.77;;
48849;SDS011;63210;53.370;6.770;2024-01-06T03:24:25;10.55;;;6.68;;
48849;SDS011;63210;53.370;6.770;2024-01-06T03:26:51;12.38;;;7.20;;
48849;SDS011;63210;53.370;6.770;2024-01-06T03:29:23;11.23;;;7.43;;
48849;SDS011;63210;53.370;6.770;2024-01-06T03:31:50;11.43;;;7.47;;
48849;SDS011;63210;53.370;6.770;2024-01-06T03:34:16;9.95;;;6.95;;
48849;SDS011;63210;53.370;6.770;2024-01-06T03:37:01;11.90;;;7.95;;
48849;SDS011;63210;53.370;6.770;2024-01-06T03:39:38;11.60;;;8.50;;
48849;SDS011;63210;53.370;6.770;2024-01-06T03:42:04;11.52;;;7.03;;
48849;SDS011;63210;53.370;6.770;2024-01-06T03:44:32;11.45;;;7.88;;
48849;SDS011;63210;53.370;6.770;2024-01-06T03:46:59;10.57;;;7.20;;
48849;SDS011;63210;53.370;6.770;2024-01-06T03:49:30;7.78;;;5.03;;
48849;SDS011;63210;53.370;6.770;2024-01-06T03:51:57;10.52;;;7.40;;
48849;SDS011;63210;53.370;6.770;2024-01-06T03:54:22;14.23;;;8.27;;
48849;SDS011;63210;53.370;6.770;2024-01-06T03:56:57;11.27;;;7.30;;
48849;SDS011;63210;53.370;6.770;2024-01-06T03:59:22;14.32;;;8.45;;
48849;SDS011;63210;53.370;6.770;2024-01-06T04:01:51;9.88;;;7.63;;
48849;SDS011;63210;53.370;6.770;2024-01-06T04:04:20;10.90;;;6.45;;
48849;SDS011;63210;53.370;6.770;2024-01-06T04:06:46;6.88;;;5.50;;
48849;SDS011;63210;53.370;6.770;2024-01-06T04:09:12;10.18;;;7.07;;
48849;SDS011;63210;53.370;6.770;2024-01-06T04:11:44;7.68;;;5.68;;
48849;SDS011;63210;53.370;6.770;2024-01-06T04:14:09;11.90;;;7.30;;
48849;SDS011;63210;53.370;6.770;2024-01-06T04:16:44;12.52;;;7.72;;
48849;SDS011;63210;53.370;6.770;2024-01-06T04:19:13;8.90;;;6.32;;
48849;SDS011;63210;53.370;6.770;2024-01-06T04:21:44;9.75;;;7.07;;
48849;SDS011;63210;53.370;6.770;2024-01-06T04:24:11;10.90;;;7.53;;
48849;SDS011;63210;53.370;6.770;2024-01-06T04:26:38;9.63;;;6.90;;
48849;SDS011;63210;53.370;6.770;2024-01-06T04:29:04;10.35;;;7.95;;
48849;SDS011;63210;53.370;6.770;2024-01-06T04:31:43;10.48;;;8.02;;
48849;SDS011;63210;53.370;6.770;2024-01-06T04:34:08;12.32;;;7.45;;
48849;SDS011;63210;53.370;6.770;2024-01-06T04:36:43;10.10;;;7.43;;
48849;SDS011;63210;53.370;6.770;2024-01-06T04:39:08;12.75;;;8.13;;
48849;SDS011;63210;53.370;6.770;2024-01-06T04:41:36;12.38;;;8.13;;
48849;SDS011;63210;53.370;6.770;2024-01-06T04:44:06;8.32;;;6.65;;
48849;SDS011;63210;53.370;6.770;2024-01-06T04:46:34;12.05;;;7.50;;
48849;SDS011;63210;53.370;6.770;2024-01-06T04:49:00;6.75;;;4.22;;
48849;SDS011;63210;53.370;6.770;2024-01-06T04:51:40;12.35;;;7.75;;
48849;SDS011;63210;53.370;6.770;2024-01-06T04:54:14;8.68;;;5.80;;
48849;SDS011;63210;53.370;6.770;2024-01-06T04:56:39;12.07;;;7.50;;
48849;SDS011;63210;53.370;6.770;2024-01-06T04:59:08;10.40;;;7.43;;
48849;SDS011;63210;53.370;6.770;2024-01-06T05:01:33;13.57;;;8.38;;
48849;SDS011;63210;53.370;6.770;2024-01-06T05:04:01;9.20;;;6.57;;
48849;SDS011;63210;53.370;6.770;2024-01-06T05:06:40;11.68;;;6.82;;
48849;SDS011;63210;53.370;6.770;2024-01-06T05:09:08;12.25;;;7.80;;
48849;SDS011;63210;53.370;6.770;2024-01-06T05:11:34;7.45;;;6.22;;
48849;SDS011;63210;53.370;6.770;2024-01-06T05:14:04;8.50;;;6.22;;
48849;SDS011;63210;53.370;6.770;2024-01-06T05:16:41;7.78;;;5.05;;
48849;SDS011;63210;53.370;6.770;2024-01-06T05:19:07;12.25;;;8.60;;
48849;SDS011;63210;53.370;6.770;2024-01-06T05:21:36;11.70;;;7.50;;
48849;SDS011;63210;53.370;6.770;2024-01-06T05:24:22;11.02;;;7.57;;
48849;SDS011;63210;53.370;6.770;2024-01-06T05:26:53;10.80;;;7.95;;
48849;SDS011;63210;53.370;6.770;2024-01-06T05:29:22;10.68;;;7.50;;
48849;SDS011;63210;53.370;6.770;2024-01-06T05:31:50;11.10;;;7.80;;
48849;SDS011;63210;53.370;6.770;2024-01-06T05:34:15;14.23;;;9.00;;
48849;SDS011;63210;53.370;6.770;2024-01-06T05:36:41;10.55;;;8.00;;
48849;SDS011;63210;53.370;6.770;2024-01-06T05:39:20;12.00;;;7.80;;
48849;SDS011;63210;53.370;6.770;2024-01-06T05:42:01;11.88;;;7.82;;
48849;SDS011;63210;53.370;6.770;2024-01-06T05:44:30;12.70;;;8.93;;
48849;SDS011;63210;53.370;6.770;2024-01-06T05:46:58;12.05;;;9.30;;
48849;SDS011;63210;53.370;6.770;2024-01-06T05:49:32;11.88;;;8.00;;
48849;SDS011;63210;53.370;6.770;2024-01-06T05:52:00;13.40;;;10.40;;
48849;SDS011;63210;53.370;6.770;2024-01-06T05:54:28;12.93;;;8.77;;
48849;SDS011;63210;53.370;6.770;2024-01-06T05:56:55;14.80;;;9.75;;
48849;SDS011;63210;53.370;6.770;2024-01-06T05:59:32;13.80;;;9.57;;
48849;SDS011;63210;53.370;6.770;2024-01-06T06:02:00;15.25;;;8.77;;
48849;SDS011;63210;53.370;6.770;2024-01-06T06:04:38;14.10;;;9.10;;
48849;SDS011;63210;53.370;6.770;2024-01-06T06:07:04;15.20;;;10.00;;
48849;SDS011;63210;53.370;6.770;2024-01-06T06:09:43;15.18;;;10.90;;
48849;SDS011;63210;53.370;6.770;2024-01-06T06:12:18;12.93;;;8.95;;
48849;SDS011;63210;53.370;6.770;2024-01-06T06:14:51;12.05;;;8.75;;
48849;SDS011;63210;53.370;6.770;2024-01-06T06:17:25;9.75;;;7.00;;
48849;SDS011;63210;53.370;6.770;2024-01-06T06:20:06;11.45;;;8.30;;
48849;SDS011;63210;53.370;6.770;2024-01-06T06:22:35;13.88;;;9.70;;
48849;SDS011;63210;53.370;6.770;2024-01-06T06:25:21;13.05;;;9.13;;
48849;SDS011;63210;53.370;6.770;2024-01-06T06:27:47;16.75;;;9.55;;
48849;SDS011;63210;53.370;6.770;2024-01-06T06:30:21;14.23;;;8.63;;
48849;SDS011;63210;53.370;6.770;2024-01-06T06:32:56;11.45;;;6.95;;
48849;SDS011;63210;53.370;6.770;2024-01-06T06:35:22;15.60;;;8.30;;
48849;SDS011;63210;53.370;6.770;2024-01-06T06:37:59;11.35;;;8.63;;
48849;SDS011;63210;53.370;6.770;2024-01-06T06:40:24;13.63;;;9.57;;
48849;SDS011;63210;53.370;6.770;2024-01-06T06:42:50;17.85;;;10.15;;
48849;SDS011;63210;53.370;6.770;2024-01-06T06:45:20;13.07;;;9.23;;
48849;SDS011;63210;53.370;6.770;2024-01-06T06:47:52;13.38;;;9.13;;
48849;SDS011;63210;53.370;6.770;2024-01-06T06:50:22;9.98;;;6.88;;
48849;SDS011;63210;53.370;6.770;2024-01-06T06:52:50;14.20;;;9.30;;
48849;SDS011;63210;53.370;6.770;2024-01-06T06:55:26;12.68;;;9.40;;
48849;SDS011;63210;53.370;6.770;2024-01-06T06:57:52;14.13;;;10.07;;
48849;SDS011;63210;53.370;6.770;2024-01-06T07:00:18;11.18;;;7.95;;
48849;SDS011;63210;53.370;6.770;2024-01-06T07:03:03;15.38;;;9.18;;
48849;SDS011;63210;53.370;6.770;2024-01-06T07:05:32;12.32;;;8.20;;
48849;SDS011;63210;53.370;6.770;2024-01-06T07:08:02;10.65;;;7.25;;
48849;SDS011;63210;53.370;6.770;2024-01-06T07:10:34;9.27;;;7.68;;
48849;SDS011;63210;53.370;6.770;2024-01-06T07:12:59;14.68;;;8.57;;
48849;SDS011;63210;53.370;6.770;2024-01-06T07:15:24;12.82;;;7.28;;
48849;SDS011;63210;53.370;6.770;2024-01-06T07:17:49;16.13;;;9.60;;
48849;SDS011;63210;53.370;6.770;2024-01-06T07:23:11;12.30;;;8.75;;
48849;SDS011;63210;53.370;6.770;2024-01-06T07:25:37;11.82;;;7.28;;
48849;SDS011;63210;53.370;6.770;2024-01-06T07:28:13;15.77;;;9.45;;
48849;SDS011;63210;53.370;6.770;2024-01-06T07:30:43;16.75;;;9.30;;
48849;SDS011;63210;53.370;6.770;2024-01-06T07:33:10;11.93;;;7.97;;
48849;SDS011;63210;53.370;6.770;2024-01-06T07:35:38;12.45;;;8.50;;
48849;SDS011;63210;53.370;6.770;2024-01-06T07:38:10;16.52;;;10.45;;
48849;SDS011;63210;53.370;6.770;2024-01-06T07:40:36;12.98;;;8.57;;
48849;SDS011;63210;53.370;6.770;2024-01-06T07:43:04;13.88;;;9.02;;
48849;SDS011;63210;53.370;6.770;2024-01-06T07:45:44;11.93;;;7.70;;
48849;SDS011;63210;53.370;6.770;2024-01-06T07:48:12;12.13;;;9.15;;
48849;SDS011;63210;53.370;6.770;2024-01-06T07:50:47;16.77;;;9.52;;
48849;SDS011;63210;53.370;6.770;2024-01-06T07:53:20;15.38;;;10.20;;
48849;SDS011;63210;53.370;6.770;2024-01-06T07:55:45;13.27;;;9.32;;
48849;SDS011;63210;53.370;6.770;2024-01-06T07:58:19;11.45;;;7.85;;
48849;SDS011;63210;53.370;6.770;2024-01-06T08:00:56;14.68;;;10.20;;
48849;SDS011;63210;53.370;6.770;2024-01-06T08:03:28;16.63;;;9.63;;
48849;SDS011;63210;53.370;6.770;2024-01-06T08:05:54;14.55;;;10.23;;
48849;SDS011;63210;53.370;6.770;2024-01-06T08:08:20;11.23;;;6.63;;
48849;SDS011;63210;53.370;6.770;2024-01-06T08:10:46;13.98;;;8.85;;
48849;SDS011;63210;53.370;6.770;2024-01-06T08:13:19;14.77;;;9.88;;
48849;SDS011;63210;53.370;6.770;2024-01-06T08:15:44;16.02;;;10.63;;
48849;SDS011;63210;53.370;6.770;2024-01-06T08:18:13;13.45;;;9.20;;
48849;SDS011;63210;53.370;6.770;2024-01-06T08:20:57;15.73;;;9.05;;
48849;SDS011;63210;53.370;6.770;2024-01-06T08:23:30;14.43;;;8.93;;
48849;SDS011;63210;53.370;6.770;2024-01-06T08:28:53;12.45;;;8.70;;
48849;SDS011;63210;53.370;6.770;2024-01-06T08:31:22;10.40;;;7.25;;
48849;SDS011;63210;53.370;6.770;2024-01-06T08:34:02;12.85;;;9.10;;
48849;SDS011;63210;53.370;6.770;2024-01-06T08:36:28;19.13;;;10.68;;
48849;SDS011;63210;53.370;6.770;2024-01-06T08:38:54;16.58;;;9.98;;
48849;SDS011;63210;53.370;6.770;2024-01-06T08:41:22;15.85;;;9.95;;
48849;SDS011;63210;53.370;6.770;2024-01-06T08:43:47;16.02;;;10.68;;
48849;SDS011;63210;53.370;6.770;2024-01-06T08:46:18;14.88;;;10.23;;
48849;SDS011;63210;53.370;6.770;2024-01-06T08:51:13;11.38;;;8.05;;
48849;SDS011;63210;53.370;6.770;2024-01-06T08:53:38;15.45;;;10.07;;
48849;SDS011;63210;53.370;6.770;2024-01-06T09:22:19;13.75;;;9.75;;
48849;SDS011;63210;53.370;6.770;2024-01-06T09:24:45;17.45;;;10.35;;
48849;SDS011;63210;53.370;6.770;2024-01-06T09:27:49;12.50;;;8.35;;
48849;SDS011;63210;53.370;6.770;2024-01-06T09:30:31;17.13;;;9.63;;
48849;SDS011;63210;53.370;6.770;2024-01-06T09:32:59;15.73;;;8.75;;
48849;SDS011;63210;53.370;6.770;2024-01-06T09:35:24;14.30;;;8.40;;
48849;SDS011;63210;53.370;6.770;2024-01-06T09:37:54;15.23;;;10.13;;
48849;SDS011;63210;53.370;6.770;2024-01-06T09:40:45;12.02;;;9.52;;
48849;SDS011;63210;53.370;6.770;2024-01-06T09:43:11;13.82;;;9.60;;
48849;SDS011;63210;53.370;6.770;2024-01-06T09:45:56;13.75;;;8.85;;
48849;SDS011;63210;53.370;6.770;2024-01-06T09:48:23;17.98;;;11.15;;
48849;SDS011;63210;53.370;6.770;2024-01-06T09:50:50;11.80;;;8.80;;
48849;SDS011;63210;53.370;6.770;2024-01-06T09:53:21;16.70;;;11.23;;
48849;SDS011;63210;53.370;6.770;2024-01-06T09:55:55;18.92;;;10.70;;
48849;SDS011;63210;53.370;6.770;2024-01-06T09:58:21;16.85;;;10.85;;
48849;SDS011;63210;53.370;6.770;2024-01-06T10:00:53;17.50;;;12.27;;
48849;SDS011;63210;53.370;6.770;2024-01-06T10:03:19;17.73;;;11.50;;
48849;SDS011;63210;53.370;6.770;2024-01-06T10:05:44;15.60;;;10.38;;
48849;SDS011;63210;53.370;6.770;2024-01-06T10:08:14;13.05;;;9.55;;
48849;SDS011;63210;53.370;6.770;2024-01-06T10:10:41;18.73;;;12.10;;
48849;SDS011;63210;53.370;6.770;2024-01-06T10:13:10;22.23;;;15.15;;
48849;SDS011;63210;53.370;6.770;2024-01-06T10:15:36;20.13;;;12.18;;
48849;SDS011;63210;53.370;6.770;2024-01-06T10:18:06;20.80;;;13.75;;
48849;SDS011;63210;53.370;6.770;2024-01-06T10:24:13;13.98;;;9.93;;
48849;SDS011;63210;53.370;6.770;2024-01-06T10:26:40;15.55;;;7.85;;
48849;SDS011;63210;53.370;6.770;2024-01-06T10:29:17;11.77;;;8.48;;
48849;SDS011;63210;53.370;6.770;2024-01-06T10:31:58;16.58;;;10.27;;
48849;SDS011;63210;53.370;6.770;2024-01-06T10:34:37;9.10;;;6.95;;
48849;SDS011;63210;53.370;6.770;2024-01-06T10:37:12;15.27;;;10.63;;
48849;SDS011;63210;53.370;6.770;2024-01-06T10:39:37;18.55;;;9.90;;
48849;SDS011;63210;53.370;6.770;2024-01-06T10:42:03;13.43;;;9.68;;
48849;SDS011;63210;53.370;6.770;2024-01-06T10:44:42;14.40;;;9.88;;
48849;SDS011;63210;53.370;6.770;2024-01-06T10:47:20;11.52;;;9.20;;
48849;SDS011;63210;53.370;6.770;2024-01-06T10:49:49;12.05;;;8.63;;
48849;SDS011;63210;53.370;6.770;2024-01-06T10:52:16;13.60;;;8.60;;
48849;SDS011;63210;53.370;6.770;2024-01-06T10:54:42;14.00;;;10.60;;
48849;SDS011;63210;53.370;6.770;2024-01-06T10:57:13;12.27;;;9.32;;
48849;SDS011;63210;53.370;6.770;2024-01-06T11:00:01;14.65;;;9.68;;
48849;SDS011;63210;53.370;6.770;2024-01-06T11:02:35;14.32;;;9.60;;
48849;SDS011;63210;53.370;6.770;2024-01-06T11:05:00;13.70;;;8.55;;
48849;SDS011;63210;53.370;6.770;2024-01-06T11:07:27;10.38;;;8.25;;
48849;SDS011;63210;53.370;6.770;2024-01-06T11:10:10;10.65;;;7.53;;
48849;SDS011;63210;53.370;6.770;2024-01-06T11:13:05;11.20;;;6.68;;
48849;SDS011;63210;53.370;6.770;2024-01-06T11:15:46;9.43;;;6.57;;
48849;SDS011;63210;53.370;6.770;2024-01-06T11:23:39;10.60;;;7.43;;
48849;SDS011;63210;53.370;6.770;2024-01-06T11:26:06;8.00;;;5.22;;
48849;SDS011;63210;53.370;6.770;2024-01-06T11:28:45;10.88;;;8.35;;
48849;SDS011;63210;53.370;6.770;2024-01-06T11:31:12;10.73;;;7.93;;
48849;SDS011;63210;53.370;6.770;2024-01-06T11:33:41;5.57;;;4.28;;
48849;SDS011;63210;53.370;6.770;2024-01-06T11:36:14;9.73;;;6.23;;
48849;SDS011;63210;53.370;6.770;2024-01-06T11:38:44;8.98;;;6.85;;
48849;SDS011;63210;53.370;6.770;2024-01-06T11:41:44;9.23;;;5.22;;
48849;SDS011;63210;53.370;6.770;2024-01-06T11:44:04;5.90;;;4.32;;
48849;SDS011;63210;53.370;6.770;2024-01-06T11:46:30;7.38;;;4.53;;
48849;SDS011;63210;53.370;6.770;2024-01-06T11:48:55;6.05;;;4.03;;
48849;SDS011;63210;53.370;6.770;2024-01-06T11:51:39;4.55;;;4.00;;
48849;SDS011;63210;53.370;6.770;2024-01-06T11:54:09;4.80;;;4.22;;
48849;SDS011;63210;53.370;6.770;2024-01-06T11:56:35;10.43;;;4.40;;
48849;SDS011;63210;53.370;6.770;2024-01-06T11:59:32;7.97;;;5.55;;
48849;SDS011;63210;53.370;6.770;2024-01-06T12:01:57;7.05;;;5.07;;
48849;SDS011;63210;53.370;6.770;2024-01-06T12:04:22;7.45;;;4.93;;
48849;SDS011;63210;53.370;6.770;2024-01-06T12:06:51;6.72;;;5.15;;
48849;SDS011;63210;53.370;6.770;2024-01-06T12:09:18;9.82;;;6.82;;
48849;SDS011;63210;53.370;6.770;2024-01-06T12:12:01;8.32;;;6.55;;
48849;SDS011;63210;53.370;6.770;2024-01-06T12:14:27;8.93;;;5.40;;
48849;SDS011;63210;53.370;6.770;2024-01-06T12:16:52;8.25;;;5.72;;
48849;SDS011;63210;53.370;6.770;2024-01-06T12:19:23;5.47;;;3.47;;
48849;SDS011;63210;53.370;6.770;2024-01-06T12:21:50;10.88;;;5.97;;
48849;SDS011;63210;53.370;6.770;2024-01-06T12:24:16;7.03;;;5.85;;
48849;SDS011;63210;53.370;6.770;2024-01-06T12:26:48;9.02;;;6.13;;
48849;SDS011;63210;53.370;6.770;2024-01-06T12:29:14;7.32;;;5.40;;
48849;SDS011;63210;53.370;6.770;2024-01-06T12:31:40;7.82;;;6.13;;
48849;SDS011;63210;53.370;6.770;2024-01-06T12:34:08;8.70;;;7.18;;
48849;SDS011;63210;53.370;6.770;2024-01-06T12:36:34;8.50;;;5.57;;
48849;SDS011;63210;53.370;6.770;2024-01-06T12:39:11;10.07;;;6.43;;
48849;SDS011;63210;53.370;6.770;2024-01-06T12:41:57;10.18;;;6.22;;
48849;SDS011;63210;53.370;6.770;2024-01-06T12:44:28;11.05;;;5.95;;
48849;SDS011;63210;53.370;6.770;2024-01-06T12:47:06;8.75;;;5.95;;
48849;SDS011;63210;53.370;6.770;2024-01-06T12:49:32;9.45;;;6.38;;
48849;SDS011;63210;53.370;6.770;2024-01-06T12:52:00;9.80;;;6.90;;
48849;SDS011;63210;53.370;6.770;2024-01-06T12:54:28;9.35;;;6.85;;
48849;SDS011;63210;53.370;6.770;2024-01-06T12:56:55;9.52;;;5.63;;
48849;SDS011;63210;53.370;6.770;2024-01-06T12:59:21;7.70;;;5.63;;
48849;SDS011;63210;53.370;6.770;2024-01-06T13:01:51;9.45;;;6.18;;
48849;SDS011;63210;53.370;6.770;2024-01-06T13:04:16;8.88;;;5.47;;
48849;SDS011;63210;53.370;6.770;2024-01-06T13:06:42;7.68;;;5.13;;
48849;SDS011;63210;53.370;6.770;2024-01-06T13:09:07;5.65;;;4.20;;
48849;SDS011;63210;53.370;6.770;2024-01-06T13:11:37;4.95;;;4.10;;
48849;SDS011;63210;53.370;6.770;2024-01-06T13:14:02;9.75;;;6.10;;
48849;SDS011;63210;53.370;6.770;2024-01-06T13:16:40;8.20;;;5.32;;
48849;SDS011;63210;53.370;6.770;2024-01-06T13:19:05;11.63;;;5.18;;
48849;SDS011;63210;53.370;6.770;2024-01-06T13:21:32;10.20;;;7.25;;
48849;SDS011;63210;53.370;6.770;2024-01-06T13:24:09;9.02;;;5.47;;
48849;SDS011;63210;53.370;6.770;2024-01-06T13:26:35;11.52;;;7.00;;
48849;SDS011;63210;53.370;6.770;2024-01-06T13:29:02;14.73;;;8.07;;
48849;SDS011;63210;53.370;6.770;2024-01-06T13:31:44;10.13;;;5.93;;
48849;SDS011;63210;53.370;6.770;2024-01-06T13:34:13;11.20;;;7.45;;
48849;SDS011;63210;53.370;6.770;2024-01-06T13:36:43;10.55;;;7.70;;
48849;SDS011;63210;53.370;6.770;2024-01-06T13:39:11;11.10;;;6.55;;
48849;SDS011;63210;53.370;6.770;2024-01-06T13:41:48;12.05;;;8.20;;
48849;SDS011;63210;53.370;6.770;2024-01-06T13:44:16;12.73;;;7.88;;
48849;SDS011;63210;53.370;6.770;2024-01-06T13:46:44;11.32;;;7.22;;
48849;SDS011;63210;53.370;6.770;2024-01-06T13:49:15;12.77;;;8.07;;
48849;SDS011;63210;53.370;6.770;2024-01-06T13:51:40;10.70;;;6.82;;
48849;SDS011;63210;53.370;6.770;2024-01-06T13:54:05;8.70;;;5.40;;
48849;SDS011;63210;53.370;6.770;2024-01-06T13:56:36;14.27;;;8.30;;
48849;SDS011;63210;53.370;6.770;2024-01-06T13:59:02;12.63;;;7.65;;
48849;SDS011;63210;53.370;6.770;2024-01-06T14:01:29;13.43;;;8.52;;
48849;SDS011;63210;53.370;6.770;2024-01-06T14:03:55;9.30;;;6.15;;
48849;SDS011;63210;53.370;6.770;2024-01-06T14:06:24;11.82;;;5.93;;
48849;SDS011;63210;53.370;6.770;2024-01-06T14:08:50;9.40;;;6.45;;
48849;SDS011;63210;53.370;6.770;2024-01-06T14:11:18;10.88;;;6.60;;
48849;SDS011;63210;53.370;6.770;2024-01-06T14:13:43;12.50;;;6.97;;
48849;SDS011;63210;53.370;6.770;2024-01-06T14:16:14;11.00;;;8.15;;
48849;SDS011;63210;53.370;6.770;2024-01-06T14:18:48;10.82;;;6.97;;
48849;SDS011;63210;53.370;6.770;2024-01-06T14:21:16;11.25;;;7.30;;
48849;SDS011;63210;53.370;6.770;2024-01-06T14:23:47;8.52;;;5.72;;
48849;SDS011;63210;53.370;6.770;2024-01-06T14:26:23;7.20;;;5.25;;
48849;SDS011;63210;53.370;6.770;2024-01-06T14:29:04;15.25;;;7.50;;
48849;SDS011;63210;53.370;6.770;2024-01-06T14:31:29;12.50;;;7.75;;
48849;SDS011;63210;53.370;6.770;2024-01-06T14:33:57;12.63;;;8.32;;
48849;SDS011;63210;53.370;6.770;2024-01-06T14:36:42;13.88;;;8.25;;
48849;SDS011;63210;53.370;6.770;2024-01-06T14:39:14;9.20;;;6.57;;
48849;SDS011;63210;53.370;6.770;2024-01-06T14:41:51;9.93;;;5.82;;
48849;SDS011;63210;53.370;6.770;2024-01-06T14:44:26;11.13;;;7.10;;
48849;SDS011;63210;53.370;6.770;2024-01-06T14:46:56;11.63;;;7.13;;
48849;SDS011;63210;53.370;6.770;2024-01-06T14:52:12;12.43;;;7.40;;
48849;SDS011;63210;53.370;6.770;2024-01-06T14:54:37;12.45;;;7.70;;
48849;SDS011;63210;53.370;6.770;2024-01-06T14:57:02;11.02;;;7.20;;
48849;SDS011;63210;53.370;6.770;2024-01-06T14:59:29;7.82;;;3.65;;
48849;SDS011;63210;53.370;6.770;2024-01-06T15:01:55;9.07;;;5.85;;
48849;SDS011;63210;53.370;6.770;2024-01-06T15:04:20;12.20;;;7.47;;
48849;SDS011;63210;53.370;6.770;2024-01-06T15:06:47;7.60;;;5.25;;
48849;SDS011;63210;53.370;6.770;2024-01-06T15:09:14;11.95;;;7.47;;
48849;SDS011;63210;53.370;6.770;2024-01-06T15:11:42;13.32;;;8.05;;
48849;SDS011;63210;53.370;6.770;2024-01-06T15:14:14;10.68;;;6.90;;
48849;SDS011;63210;53.370;6.770;2024-01-06T15:19:26;7.30;;;4.75;;
48849;SDS011;63210;53.370;6.770;2024-01-06T15:22:01;12.75;;;7.70;;
48849;SDS011;63210;53.370;6.770;2024-01-06T15:24:32;10.77;;;6.45;;
48849;SDS011;63210;53.370;6.770;2024-01-06T15:26:57;12.80;;;7.50;;
48849;SDS011;63210;53.370;6.770;2024-01-06T15:29:23;9.00;;;6.05;;
48849;SDS011;63210;53.370;6.770;2024-01-06T15:31:49;7.53;;;5.35;;
48849;SDS011;63210;53.370;6.770;2024-01-06T15:34:16;11.98;;;6.85;;
48849;SDS011;63210;53.370;6.770;2024-01-06T15:36:51;9.95;;;6.63;;
48849;SDS011;63210;53.370;6.770;2024-01-06T15:39:47;8.68;;;5.00;;
48849;SDS011;63210;53.370;6.770;2024-01-06T15:42:18;7.18;;;4.88;;
48849;SDS011;63210;53.370;6.770;2024-01-06T15:44:47;4.78;;;3.08;;
48849;SDS011;63210;53.370;6.770;2024-01-06T15:47:14;10.98;;;6.35;;
48849;SDS011;63210;53.370;6.770;2024-01-06T15:49:43;6.72;;;3.53;;
48849;SDS011;63210;53.370;6.770;2024-01-06T15:52:08;9.02;;;5.57;;
48849;SDS011;63210;53.370;6.770;2024-01-06T15:54:40;12.57;;;7.45;;
48849;SDS011;63210;53.370;6.770;2024-01-06T15:57:06;9.90;;;5.97;;
48849;SDS011;63210;53.370;6.770;2024-01-06T15:59:31;14.40;;;6.80;;
48849;SDS011;63210;53.370;6.770;2024-01-06T16:02:29;8.82;;;6.13;;
48849;SDS011;63210;53.370;6.770;2024-01-06T16:05:04;8.73;;;6.05;;
48849;SDS011;63210;53.370;6.770;2024-01-06T16:07:32;9.05;;;6.60;;